createdAt,value
2018-02-25T00:00:13.025Z,15.13
2018-02-25T00:02:39.282Z,16.17
2018-02-25T00:05:05.545Z,13.20
2018-02-25T00:07:32.572Z,14.77
2018-02-25T00:09:58.837Z,17.73
2018-02-25T00:12:26.200Z,14.57
2018-02-25T00:14:53.324Z,15.53
2018-02-25T00:17:19.793Z,13.13
2018-02-25T00:19:46.955Z,14.47
2018-02-25T00:22:18.190Z,13.77
2018-02-25T00:24:45.293Z,16.17
2018-02-25T00:27:30.460Z,12.93
2018-02-25T00:29:56.795Z,16.00
2018-02-25T00:32:24.991Z,15.27
2018-02-25T00:34:51.222Z,12.30
2018-02-25T00:37:17.528Z,17.37
2018-02-25T00:40:10.187Z,14.63
2018-02-25T00:42:36.535Z,15.80
2018-02-25T00:45:02.860Z,14.97
2018-02-25T00:47:29.128Z,16.23
2018-02-25T00:49:55.386Z,14.70
2018-02-25T00:52:21.621Z,13.40
2018-02-25T00:54:55.783Z,13.23
2018-02-25T00:57:22.898Z,14.67
2018-02-25T00:59:49.416Z,14.13
2018-02-25T01:02:15.634Z,13.50
2018-02-25T01:04:42.661Z,16.57
2018-02-25T01:07:08.924Z,14.17
2018-02-25T01:09:35.266Z,12.90
2018-02-25T01:12:01.510Z,15.80
2018-02-25T01:14:27.903Z,14.07
2018-02-25T01:16:54.330Z,14.37
2018-02-25T01:19:21.483Z,14.50
2018-02-25T01:21:48.477Z,13.53
2018-02-25T01:24:14.982Z,16.37
2018-02-25T01:26:42.024Z,17.23
2018-02-25T01:29:08.341Z,13.90
2018-02-25T01:31:35.648Z,15.60
2018-02-25T01:34:02.781Z,17.20
2018-02-25T01:36:29.075Z,16.57
2018-02-25T01:39:02.474Z,15.70
2018-02-25T01:41:29.497Z,14.83
2018-02-25T01:43:55.802Z,14.77
2018-02-25T01:46:22.089Z,14.20
2018-02-25T01:48:49.114Z,14.50
2018-02-25T01:51:23.203Z,16.23
2018-02-25T01:53:50.174Z,18.97
2018-02-25T01:56:16.401Z,19.10
2018-02-25T01:58:43.441Z,18.70
2018-02-25T02:01:09.923Z,17.40
2018-02-25T02:03:36.202Z,19.30
2018-02-25T02:06:24.900Z,17.90
2018-02-25T02:08:54.573Z,17.17
2018-02-25T02:11:20.859Z,16.50
2018-02-25T02:13:47.154Z,13.67
2018-02-25T02:16:23.353Z,16.20
2018-02-25T02:18:49.570Z,17.50
2018-02-25T02:21:15.860Z,16.37
2018-02-25T02:23:42.123Z,14.73
2018-02-25T02:26:09.116Z,16.60
2018-02-25T02:28:35.431Z,18.30
2018-02-25T02:31:02.465Z,19.53
2018-02-25T02:33:28.688Z,15.20
2018-02-25T02:35:55.027Z,17.23
2018-02-25T02:38:21.293Z,17.63
2018-02-25T02:40:47.602Z,17.20
2018-02-25T02:43:13.810Z,17.30
2018-02-25T02:45:40.064Z,17.27
2018-02-25T02:48:06.363Z,15.70
2018-02-25T02:50:38.445Z,14.50
2018-02-25T02:53:04.718Z,17.50
2018-02-25T02:55:30.939Z,18.00
2018-02-25T02:57:57.224Z,14.00
2018-02-25T03:00:23.474Z,20.33
2018-02-25T03:02:57.259Z,20.73
2018-02-25T03:05:23.536Z,20.03
2018-02-25T03:07:49.775Z,20.60
2018-02-25T03:10:23.281Z,20.47
2018-02-25T03:12:49.586Z,19.90
2018-02-25T03:15:16.601Z,19.73
2018-02-25T03:17:42.826Z,21.07
2018-02-25T03:20:09.093Z,18.40
2018-02-25T03:22:35.330Z,18.37
2018-02-25T03:25:01.602Z,19.83
2018-02-25T03:27:28.674Z,18.83
2018-02-25T03:29:55.723Z,18.53
2018-02-25T03:32:22.748Z,18.87
2018-02-25T03:34:48.963Z,18.83
2018-02-25T03:37:20.446Z,16.10
2018-02-25T03:39:46.740Z,17.00
2018-02-25T03:42:12.993Z,20.00
2018-02-25T03:44:39.229Z,17.40
2018-02-25T03:47:05.501Z,20.57
2018-02-25T03:49:31.775Z,18.57
2018-02-25T03:51:58.096Z,17.77
2018-02-25T03:54:24.438Z,20.33
2018-02-25T03:56:50.678Z,16.30
2018-02-25T03:59:17.671Z,18.10
2018-02-25T04:01:44.154Z,17.17
2018-02-25T04:04:10.388Z,17.53
2018-02-25T04:06:36.658Z,15.67
2018-02-25T04:09:02.953Z,17.60
2018-02-25T04:11:52.774Z,17.43
2018-02-25T04:14:19.062Z,17.77
2018-02-25T04:16:45.340Z,19.43
2018-02-25T04:19:12.439Z,17.10
2018-02-25T04:21:38.714Z,15.33
2018-02-25T04:24:04.983Z,15.60
2018-02-25T04:26:31.978Z,17.90
2018-02-25T04:28:58.227Z,14.93
2018-02-25T04:31:24.460Z,18.30
2018-02-25T04:33:50.729Z,15.30
2018-02-25T04:36:17.018Z,16.33
2018-02-25T04:38:54.299Z,17.77
2018-02-25T04:41:21.254Z,18.63
2018-02-25T04:43:48.255Z,16.70
2018-02-25T04:46:14.491Z,23.87
2018-02-25T04:48:40.770Z,18.83
2018-02-25T04:51:07.037Z,19.47
2018-02-25T04:53:33.302Z,17.17
2018-02-25T04:55:59.630Z,15.33
2018-02-25T04:58:26.807Z,20.13
2018-02-25T05:00:53.138Z,17.03
2018-02-25T05:03:20.094Z,17.23
2018-02-25T05:05:47.080Z,16.97
2018-02-25T05:08:14.076Z,17.43
2018-02-25T05:10:40.494Z,13.70
2018-02-25T05:13:06.764Z,15.90
2018-02-25T05:15:35.121Z,16.80
2018-02-25T05:18:01.387Z,15.03
2018-02-25T05:20:27.670Z,13.70
2018-02-25T05:22:54.765Z,18.13
2018-02-25T05:25:21.094Z,18.87
2018-02-25T05:27:47.446Z,14.63
2018-02-25T05:30:13.728Z,18.30
2018-02-25T05:32:40.320Z,15.00
2018-02-25T05:35:07.358Z,16.83
2018-02-25T05:37:33.588Z,15.70
2018-02-25T05:40:13.396Z,14.43
2018-02-25T05:42:40.548Z,16.50
2018-02-25T05:45:24.827Z,13.10
2018-02-25T05:47:51.203Z,12.93
2018-02-25T05:50:21.428Z,14.13
2018-02-25T05:52:47.704Z,13.53
2018-02-25T05:55:13.974Z,14.70
2018-02-25T05:57:40.176Z,13.10
2018-02-25T06:00:17.083Z,12.17
2018-02-25T06:02:44.050Z,12.50
2018-02-25T06:05:11.043Z,14.27
2018-02-25T06:07:37.330Z,11.97
2018-02-25T06:10:03.594Z,14.60
2018-02-25T06:12:30.596Z,11.70
2018-02-25T06:14:56.826Z,13.10
2018-02-25T06:17:23.094Z,14.10
2018-02-25T06:19:49.365Z,12.93
2018-02-25T06:22:15.614Z,12.93
2018-02-25T06:24:42.660Z,12.03
2018-02-25T06:27:08.934Z,12.37
2018-02-25T06:29:48.236Z,15.63
2018-02-25T06:32:14.501Z,12.93
2018-02-25T06:34:40.764Z,11.83
2018-02-25T06:37:07.799Z,16.33
2018-02-25T06:39:34.146Z,18.60
2018-02-25T06:42:00.468Z,12.03
2018-02-25T06:44:26.887Z,17.80
2018-02-25T06:46:53.507Z,11.23
2018-02-25T06:49:19.868Z,12.93
2018-02-25T06:51:46.433Z,12.30
2018-02-25T06:54:18.530Z,11.00
2018-02-25T06:57:11.261Z,11.53
2018-02-25T07:02:30.016Z,10.47
2018-02-25T07:05:00.258Z,9.77
2018-02-25T07:07:26.649Z,14.57
2018-02-25T07:09:53.271Z,11.50
2018-02-25T07:12:19.709Z,10.57
2018-02-25T07:14:48.378Z,11.07
2018-02-25T07:17:14.718Z,10.40
2018-02-25T07:19:41.049Z,9.30
2018-02-25T07:22:07.358Z,12.07
2018-02-25T07:24:34.339Z,10.87
2018-02-25T07:27:00.553Z,11.10
2018-02-25T07:29:27.103Z,10.63
2018-02-25T07:31:55.362Z,11.80
2018-02-25T07:34:22.491Z,12.83
2018-02-25T07:36:48.843Z,11.30
2018-02-25T07:39:15.099Z,10.80
2018-02-25T07:41:42.127Z,11.17
2018-02-25T07:44:08.422Z,9.30
2018-02-25T07:46:35.451Z,10.10
2018-02-25T07:49:01.644Z,9.77
2018-02-25T07:51:40.924Z,10.97
2018-02-25T07:54:08.102Z,7.93
2018-02-25T07:56:34.398Z,7.07
2018-02-25T07:59:00.751Z,8.33
2018-02-25T08:01:27.024Z,8.43
2018-02-25T08:03:53.264Z,6.53
2018-02-25T08:06:19.524Z,10.23
2018-02-25T08:08:51.361Z,7.27
2018-02-25T08:11:17.655Z,9.53
2018-02-25T08:13:44.698Z,11.33
2018-02-25T08:16:11.022Z,7.60
2018-02-25T08:18:37.328Z,8.60
2018-02-25T08:21:03.653Z,6.67
2018-02-25T08:23:30.674Z,8.90
2018-02-25T08:25:56.925Z,10.33
2018-02-25T08:28:23.786Z,7.93
2018-02-25T08:30:50.859Z,9.10
2018-02-25T08:39:16.505Z,11.03
2018-02-25T08:41:42.758Z,9.73
2018-02-25T08:44:08.987Z,8.57
2018-02-25T08:46:35.306Z,9.63
2018-02-25T08:49:01.681Z,9.73
2018-02-25T08:51:28.171Z,8.80
2018-02-25T08:53:55.185Z,7.37
2018-02-25T08:56:21.647Z,10.20
2018-02-25T08:58:47.885Z,9.97
2018-02-25T09:01:22.086Z,9.50
2018-02-25T09:03:48.624Z,8.20
2018-02-25T09:06:14.869Z,9.73
2018-02-25T09:08:41.361Z,10.80
2018-02-25T09:11:07.602Z,7.53
2018-02-25T09:13:33.868Z,11.90
2018-02-25T09:16:00.940Z,11.40
2018-02-25T09:18:44.826Z,8.83
2018-02-25T09:21:11.158Z,8.83
2018-02-25T09:23:37.453Z,11.90
2018-02-25T09:26:03.803Z,9.60
2018-02-25T09:28:30.131Z,9.20
2018-02-25T09:30:56.442Z,9.47
2018-02-25T09:33:23.710Z,10.70
2018-02-25T09:35:50.068Z,7.83
2018-02-25T09:38:16.353Z,8.07
2018-02-25T09:40:42.602Z,9.20
2018-02-25T09:43:09.696Z,10.97
2018-02-25T09:45:36.796Z,9.33
2018-02-25T09:48:03.142Z,9.17
2018-02-25T09:50:30.132Z,8.50
2018-02-25T09:52:56.509Z,9.43
2018-02-25T09:55:27.139Z,8.37
2018-02-25T09:57:53.541Z,9.87
2018-02-25T10:00:24.472Z,7.53
2018-02-25T10:02:50.813Z,9.20
2018-02-25T10:05:17.145Z,8.87
2018-02-25T10:07:43.446Z,9.73
2018-02-25T10:10:09.829Z,8.57
2018-02-25T10:12:36.833Z,11.17
2018-02-25T10:15:03.839Z,10.20
2018-02-25T10:17:30.142Z,9.73
2018-02-25T10:19:57.113Z,9.60
2018-02-25T10:22:23.591Z,8.73
2018-02-25T10:24:49.952Z,10.70
2018-02-25T10:27:16.239Z,7.77
2018-02-25T10:29:43.289Z,9.00
2018-02-25T10:32:10.332Z,14.17
2018-02-25T10:34:36.604Z,7.13
2018-02-25T10:37:03.663Z,7.83
2018-02-25T10:39:30.679Z,9.40
2018-02-25T10:41:57.590Z,7.83
2018-02-25T10:44:23.906Z,8.07
2018-02-25T10:46:50.169Z,8.90
2018-02-25T10:49:27.746Z,8.57
2018-02-25T10:51:54.168Z,9.17
2018-02-25T10:54:20.463Z,8.83
2018-02-25T10:56:46.735Z,9.07
2018-02-25T10:59:13.049Z,8.73
2018-02-25T11:01:40.429Z,17.87
2018-02-25T11:04:06.657Z,11.20
2018-02-25T11:06:32.899Z,9.07
2018-02-25T11:09:03.920Z,8.23
2018-02-25T11:11:33.243Z,8.73
2018-02-25T11:13:59.570Z,9.67
2018-02-25T11:16:26.060Z,18.90
2018-02-25T11:18:52.418Z,9.23
2018-02-25T11:21:23.397Z,9.37
2018-02-25T11:23:49.649Z,8.97
2018-02-25T11:26:15.914Z,8.30
2018-02-25T11:28:42.182Z,5.87
2018-02-25T11:31:08.431Z,7.97
2018-02-25T11:33:34.662Z,9.50
2018-02-25T11:36:00.956Z,9.70
2018-02-25T11:38:27.566Z,8.80
2018-02-25T11:40:59.115Z,10.80
2018-02-25T11:43:26.358Z,8.87
2018-02-25T11:45:53.158Z,7.60
2018-02-25T11:48:19.460Z,7.53
2018-02-25T11:50:46.466Z,7.50
2018-02-25T11:53:12.724Z,9.23
2018-02-25T11:55:38.941Z,8.03
2018-02-25T11:58:05.281Z,8.17
2018-02-25T12:00:31.578Z,8.43
2018-02-25T12:02:58.035Z,8.10
2018-02-25T12:05:25.288Z,8.90
2018-02-25T12:07:51.576Z,7.73
2018-02-25T12:10:17.812Z,8.53
2018-02-25T12:12:44.117Z,7.87
2018-02-25T12:15:11.136Z,9.00
2018-02-25T12:17:37.418Z,9.00
2018-02-25T12:20:03.669Z,7.77
2018-02-25T12:22:30.641Z,8.23
2018-02-25T12:24:59.806Z,6.47
2018-02-25T12:27:26.180Z,7.40
2018-02-25T12:29:53.636Z,9.00
2018-02-25T12:32:20.742Z,8.63
2018-02-25T12:34:47.010Z,7.73
2018-02-25T12:37:13.301Z,7.50
2018-02-25T12:39:40.293Z,7.23
2018-02-25T12:42:06.583Z,7.33
2018-02-25T12:44:32.838Z,9.87
2018-02-25T12:46:59.870Z,8.47
2018-02-25T12:49:26.284Z,8.37
2018-02-25T12:51:52.569Z,6.90
2018-02-25T12:54:23.680Z,5.47
2018-02-25T12:56:49.982Z,8.77
2018-02-25T12:59:16.972Z,8.33
2018-02-25T13:01:43.254Z,7.23
2018-02-25T13:04:09.614Z,8.70
2018-02-25T13:06:35.949Z,8.47
2018-02-25T13:09:02.218Z,5.87
2018-02-25T13:11:29.239Z,7.40
2018-02-25T13:13:57.923Z,7.10
2018-02-25T13:16:24.360Z,7.70
2018-02-25T13:18:50.654Z,7.37
2018-02-25T13:21:17.649Z,6.67
2018-02-25T13:23:43.996Z,8.97
2018-02-25T13:26:10.286Z,9.93
2018-02-25T13:28:36.531Z,5.87
2018-02-25T13:31:02.836Z,6.30
2018-02-25T13:33:37.606Z,6.63
2018-02-25T13:36:03.993Z,6.77
2018-02-25T13:38:30.371Z,5.13
2018-02-25T13:40:56.827Z,4.77
2018-02-25T13:43:31.563Z,9.33
2018-02-25T13:45:57.844Z,4.97
2018-02-25T13:48:24.874Z,5.47
2018-02-25T13:50:51.178Z,3.30
2018-02-25T13:53:18.198Z,6.70
2018-02-25T13:55:46.474Z,6.93
2018-02-25T13:58:12.798Z,4.23
2018-02-25T14:00:39.022Z,5.47
2018-02-25T14:03:05.338Z,5.43
2018-02-25T14:05:31.622Z,6.23
2018-02-25T14:07:57.859Z,4.80
2018-02-25T14:10:24.454Z,5.57
2018-02-25T14:12:50.720Z,4.73
2018-02-25T14:15:17.063Z,4.73
2018-02-25T14:17:43.324Z,6.80
2018-02-25T14:20:09.624Z,3.83
2018-02-25T14:22:36.642Z,5.43
2018-02-25T14:25:02.952Z,5.40
2018-02-25T14:27:29.207Z,3.33
2018-02-25T14:29:55.512Z,5.03
2018-02-25T14:32:22.518Z,5.93
2018-02-25T14:34:48.911Z,4.07
2018-02-25T14:37:15.924Z,4.23
2018-02-25T14:39:42.170Z,5.57
2018-02-25T14:42:08.436Z,3.73
2018-02-25T14:44:34.700Z,4.63
2018-02-25T14:47:01.006Z,5.70
2018-02-25T14:49:28.012Z,7.20
2018-02-25T14:51:55.107Z,4.80
2018-02-25T14:54:21.356Z,4.63
2018-02-25T14:56:47.726Z,5.03
2018-02-25T14:59:14.044Z,3.90
2018-02-25T15:01:40.282Z,10.27
2018-02-25T15:04:06.630Z,3.50
2018-02-25T15:06:32.924Z,5.90
2018-02-25T15:08:59.943Z,4.43
2018-02-25T15:11:26.255Z,4.60
2018-02-25T15:13:56.279Z,6.63
2018-02-25T15:16:22.645Z,4.70
2018-02-25T15:18:51.847Z,6.07
2018-02-25T15:21:18.189Z,5.53
2018-02-25T15:23:44.490Z,5.07
2018-02-25T15:26:11.543Z,7.67
2018-02-25T15:28:38.675Z,4.63
2018-02-25T15:31:05.988Z,5.63
2018-02-25T15:33:37.217Z,6.43
2018-02-25T15:36:03.524Z,6.17
2018-02-25T15:38:33.696Z,6.17
2018-02-25T15:41:00.000Z,7.30
2018-02-25T15:43:36.834Z,6.30
2018-02-25T15:46:03.970Z,8.20
2018-02-25T15:48:30.214Z,6.73
2018-02-25T15:50:56.531Z,5.80
2018-02-25T15:53:23.386Z,7.57
2018-02-25T15:55:51.370Z,5.00
2018-02-25T15:58:21.613Z,4.83
2018-02-25T16:00:54.374Z,5.13
2018-02-25T16:03:20.628Z,5.37
2018-02-25T16:05:46.920Z,5.37
2018-02-25T16:08:13.154Z,4.57
2018-02-25T16:10:39.431Z,3.50
2018-02-25T16:13:06.483Z,5.47
2018-02-25T16:15:33.495Z,3.77
2018-02-25T16:18:01.589Z,5.83
2018-02-25T16:20:31.773Z,6.57
2018-02-25T16:22:58.278Z,4.80
2018-02-25T16:25:24.747Z,6.90
2018-02-25T16:27:51.042Z,9.97
2018-02-25T16:30:18.062Z,4.33
2018-02-25T16:32:45.174Z,4.07
2018-02-25T16:35:11.595Z,5.23
2018-02-25T16:37:37.835Z,3.70
2018-02-25T16:40:04.931Z,6.10
2018-02-25T16:42:31.203Z,8.07
2018-02-25T16:44:57.453Z,3.73
2018-02-25T16:47:24.626Z,7.53
2018-02-25T16:49:50.918Z,6.97
2018-02-25T16:52:17.196Z,5.40
2018-02-25T16:54:43.553Z,5.50
2018-02-25T16:57:09.821Z,5.70
2018-02-25T16:59:36.144Z,7.30
2018-02-25T17:02:02.423Z,5.30
2018-02-25T17:04:28.701Z,6.93
2018-02-25T17:06:55.724Z,7.37
2018-02-25T17:09:22.026Z,5.50
2018-02-25T17:11:48.386Z,5.47
2018-02-25T17:14:14.639Z,6.83
2018-02-25T17:16:42.195Z,5.50
2018-02-25T17:19:08.513Z,8.53
2018-02-25T17:21:35.556Z,13.17
2018-02-25T17:24:01.941Z,6.77
2018-02-25T17:26:28.399Z,9.20
2018-02-25T17:28:54.783Z,7.53
2018-02-25T17:31:21.094Z,7.37
2018-02-25T17:33:47.393Z,8.60
2018-02-25T17:36:15.416Z,6.90
2018-02-25T17:38:41.724Z,13.13
2018-02-25T17:41:13.534Z,12.40
2018-02-25T17:43:39.776Z,12.30
2018-02-25T17:46:06.059Z,10.00
2018-02-25T17:48:32.380Z,10.43
2018-02-25T17:50:58.656Z,11.00
2018-02-25T17:53:30.383Z,9.70
2018-02-25T17:55:56.858Z,7.80
2018-02-25T17:58:23.190Z,11.63
2018-02-25T18:00:54.762Z,7.87
2018-02-25T18:03:21.033Z,8.03
2018-02-25T18:05:48.030Z,12.73
2018-02-25T18:08:14.751Z,10.23
2018-02-25T18:10:41.087Z,10.23
2018-02-25T18:13:08.166Z,7.17
2018-02-25T18:15:34.460Z,10.20
2018-02-25T18:18:00.766Z,9.43
2018-02-25T18:20:30.834Z,5.93
2018-02-25T18:22:57.175Z,7.73
2018-02-25T18:25:23.500Z,8.60
2018-02-25T18:27:49.884Z,9.20
2018-02-25T18:30:16.203Z,7.93
2018-02-25T18:32:43.583Z,7.53
2018-02-25T18:35:10.230Z,7.17
2018-02-25T18:37:36.582Z,7.93
2018-02-25T18:40:03.899Z,7.30
2018-02-25T18:42:30.470Z,9.03
2018-02-25T18:44:56.800Z,7.57
2018-02-25T18:47:23.120Z,7.00
2018-02-25T18:49:50.615Z,8.17
2018-02-25T18:52:16.915Z,6.77
2018-02-25T18:54:43.931Z,8.37
2018-02-25T18:57:10.257Z,8.27
2018-02-25T18:59:36.555Z,7.10
2018-02-25T19:02:03.581Z,11.80
2018-02-25T19:04:29.849Z,10.33
2018-02-25T19:06:57.050Z,14.63
2018-02-25T19:09:24.407Z,19.27
2018-02-25T19:11:50.842Z,9.43
2018-02-25T19:14:23.823Z,8.43
2018-02-25T19:16:50.883Z,7.37
2018-02-25T19:19:18.020Z,8.40
2018-02-25T19:21:44.350Z,7.50
2018-02-25T19:24:10.819Z,8.53
2018-02-25T19:26:37.068Z,6.80
2018-02-25T19:29:03.383Z,8.23
2018-02-25T19:31:29.740Z,7.30
2018-02-25T19:33:56.049Z,9.37
2018-02-25T19:36:28.437Z,9.30
2018-02-25T19:39:00.724Z,8.20
2018-02-25T19:41:33.197Z,7.57
2018-02-25T19:43:59.539Z,8.83
2018-02-25T19:46:25.878Z,7.30
2018-02-25T19:48:52.206Z,8.20
2018-02-25T19:51:19.338Z,7.63
2018-02-25T19:53:45.667Z,8.03
2018-02-25T19:56:11.967Z,9.47
2018-02-25T19:58:38.978Z,8.70
2018-02-25T20:01:05.246Z,7.77
2018-02-25T20:03:31.582Z,10.37
2018-02-25T20:05:57.946Z,9.67
2018-02-25T20:08:24.967Z,9.33
2018-02-25T20:10:51.218Z,9.40
2018-02-25T20:13:18.504Z,9.33
2018-02-25T20:15:44.803Z,9.93
2018-02-25T20:18:11.063Z,7.40
2018-02-25T20:20:37.351Z,9.50
2018-02-25T20:23:03.571Z,7.47
2018-02-25T20:25:30.638Z,6.90
2018-02-25T20:27:56.917Z,6.57
2018-02-25T20:30:24.271Z,9.33
2018-02-25T20:32:50.519Z,11.07
2018-02-25T20:35:16.757Z,8.90
2018-02-25T20:37:43.006Z,9.43
2018-02-25T20:40:09.397Z,10.07
2018-02-25T20:42:35.759Z,9.53
2018-02-25T20:45:02.833Z,9.47
2018-02-25T20:47:29.144Z,12.13
2018-02-25T20:49:55.407Z,7.70
2018-02-25T20:52:21.657Z,9.60
2018-02-25T20:54:49.621Z,9.60
2018-02-25T20:57:16.640Z,9.43
2018-02-25T20:59:42.934Z,8.83
2018-02-25T21:02:09.223Z,9.27
2018-02-25T21:04:35.459Z,9.80
2018-02-25T21:07:01.746Z,9.67
2018-02-25T21:09:28.855Z,10.50
2018-02-25T21:11:55.174Z,9.80
2018-02-25T21:14:21.508Z,11.37
2018-02-25T21:16:48.521Z,12.47
2018-02-25T21:19:14.804Z,9.53
2018-02-25T21:21:46.251Z,13.83
2018-02-25T21:24:12.624Z,13.90
2018-02-25T21:26:39.604Z,10.93
2018-02-25T21:29:05.872Z,11.50
2018-02-25T21:31:32.203Z,10.33
2018-02-25T21:33:58.549Z,8.43
2018-02-25T21:36:25.066Z,9.30
2018-02-25T21:39:09.677Z,11.10
2018-02-25T21:41:36.003Z,7.23
2018-02-25T21:44:02.487Z,9.60
2018-02-25T21:46:28.989Z,9.10
2018-02-25T21:48:55.259Z,10.30
2018-02-25T21:51:22.464Z,12.63
2018-02-25T21:53:48.933Z,10.40
2018-02-25T21:56:21.241Z,11.37
2018-02-25T21:58:53.937Z,9.97
2018-02-25T22:01:27.188Z,9.00
2018-02-25T22:03:58.403Z,9.17
2018-02-25T22:06:24.710Z,9.50
2018-02-25T22:08:51.306Z,11.13
2018-02-25T22:11:17.560Z,10.33
2018-02-25T22:13:43.946Z,13.53
2018-02-25T22:16:10.269Z,12.43
2018-02-25T22:18:37.267Z,12.80
2018-02-25T22:21:03.580Z,13.23
2018-02-25T22:23:29.938Z,16.83
2018-02-25T22:25:58.330Z,12.63
2018-02-25T22:28:24.777Z,13.27
2018-02-25T22:30:51.167Z,9.87
2018-02-25T22:33:17.476Z,11.77
2018-02-25T22:35:46.956Z,11.50
2018-02-25T22:38:13.980Z,11.87
2018-02-25T22:40:40.285Z,14.43
2018-02-25T22:43:12.329Z,15.87
2018-02-25T22:45:39.400Z,9.90
2018-02-25T22:48:06.441Z,13.63
2018-02-25T22:50:33.478Z,13.73
2018-02-25T22:53:08.337Z,13.53
2018-02-25T22:55:35.326Z,12.87
2018-02-25T22:58:01.532Z,11.40
2018-02-25T23:00:27.852Z,14.40
2018-02-25T23:02:54.862Z,11.67
2018-02-25T23:05:21.949Z,17.43
2018-02-25T23:07:49.255Z,14.80
2018-02-25T23:10:15.527Z,14.57
2018-02-25T23:12:42.560Z,12.27
2018-02-25T23:15:09.558Z,13.50
2018-02-25T23:17:36.659Z,10.67
2018-02-25T23:20:03.093Z,10.47
2018-02-25T23:22:29.462Z,11.50
2018-02-25T23:24:55.734Z,11.13
2018-02-25T23:27:24.035Z,12.87
2018-02-25T23:29:51.027Z,14.47
2018-02-25T23:32:17.299Z,9.93
2018-02-25T23:34:43.650Z,10.87
2018-02-25T23:37:10.973Z,10.03
2018-02-25T23:39:37.958Z,10.83
2018-02-25T23:42:04.941Z,9.90
2018-02-25T23:44:31.181Z,10.77
2018-02-25T23:46:59.615Z,10.53
2018-02-25T23:49:30.025Z,10.47
2018-02-25T23:51:56.504Z,9.83
2018-02-25T23:54:22.796Z,9.10
2018-02-25T23:56:49.195Z,11.80
2018-02-25T23:59:15.484Z,12.33
